Leupp Corner, Arizona
Current Conditions -  °F | °C
As of 7:56 PM on Friday 19 Dec 2014 (Local Time) from KINW Reporting Station
Clear Clear  
Wind Chill: 25°   Ceiling: Unl
Heat Index: 30°   Visibility: 10mi
Dew Point: 28°   Wind: 5mph
Humidity: 92%   Direction: 150°SSE
Pressure: 30.24"   Gusts: NA
Location:  35.1934°N, 110.361°W
Report Text: KINW 200256Z AUTO 15004KT 10SM CLR M01/M02 A3024 RMK AO2 SLP266 T10111022 53007
Loading
Personal Weather Stations






























Interactive Weather Map New forecast layout! Learn more

10-Day Weather Forecast

Advertisements
Track Severe Weather on mobile